^^
Saratoga-Weather Station Historical Data
Daily Summary for July 26, 2020 Units:  Both    English   Metric
Daily Weekly Monthly Yearly Custom
  High: Low: Average:
Temperature: 40.6 °F /  4.8 °C 33.4 °F /  0.8 °C 36.5 °F /  2.5 °C
Dew Point: 40.5 °F /  4.7 °C 32.9 °F /  0.5 °C 36 °F /  2.2 °C
Humidity: 99% 98% 98%
Wind Speed: 2.9mph /  4.7km/h - 0.1mph /  0.2km/h
Wind Gust: 4mph /  6.4km/h - -
Wind- - ESE
Pressure: 30.1 in /  1019.6 hPa 30 in /  1015.9 hPa -
Precipitation: 0.01 in /  0.2 mm    
Historical Graphs
 
 
Tabular Data for July 26, 2020
Time Temperature Dew Point Pressure Wind Wind Speed Wind Gust Humidity Rainfall Rate (Hourly) solar
00:00 35.8 °F /  2.1 °C 35.2 °F /  1.8 °C 30.1in /  1019.6hPa Calm     98% 0in /  0.0mm 0 W/m2
00:05 35.8 °F /  2.1 °C 35.2 °F /  1.8 °C 30.1in /  1019.6hPa Calm     98% 0in /  0.0mm 0 W/m2
00:10 35.8 °F /  2.1 °C 35.2 °F /  1.8 °C 30.1in /  1019.6hPa Calm     98% 0in /  0.0mm 0 W/m2
00:15 35.8 °F /  2.1 °C 35.2 °F /  1.8 °C 30.1in /  1019.6hPa Calm     98% 0in /  0.0mm 0 W/m2
00:20 35.8 °F /  2.1 °C 35.2 °F /  1.8 °C 30.1in /  1019.6hPa Calm     98% 0in /  0.0mm 0 W/m2
00:25 35.8 °F /  2.1 °C 35.2 °F /  1.8 °C 30.1in /  1019.6hPa Calm     98% 0in /  0.0mm 0 W/m2
00:30 35.8 °F /  2.1 °C 35.2 °F /  1.8 °C 30.1in /  1019.6hPa Calm     98% 0in /  0.0mm 0 W/m2
00:35 35.8 °F /  2.1 °C 35.2 °F /  1.8 °C 30.1in /  1019.6hPa Calm     98% 0in /  0.0mm 0 W/m2
00:40 35.4 °F /  1.9 °C 34.9 °F /  1.6 °C 30.1in /  1019.6hPa Calm     98% 0in /  0.0mm 0 W/m2
00:45 35.2 °F /  1.8 °C 34.7 °F /  1.5 °C 30.1in /  1019.6hPa SE 2.9mph /  4.7km/h 3mph /  4.8km/h 98% 0in /  0.0mm 0 W/m2
00:50 35.2 °F /  1.8 °C 34.7 °F /  1.5 °C 30.1in /  1019.6hPa East 2.9mph /  4.7km/h 3mph /  4.8km/h 98% 0in /  0.0mm 0 W/m2
00:55 35.1 °F /  1.7 °C 34.5 °F /  1.4 °C 30.1in /  1019.6hPa ESE 0.9mph /  1.4km/h 1mph /  1.6km/h 98% 0in /  0.0mm 0 W/m2
01:00 35.1 °F /  1.7 °C 34.5 °F /  1.4 °C 30.1in /  1019.6hPa Calm     98% 0in /  0.0mm 0 W/m2
01:05 35.1 °F /  1.7 °C 34.5 °F /  1.4 °C 30.1in /  1019.6hPa Calm   3mph /  4.8km/h 98% 0in /  0.0mm 0 W/m2
01:10 34.9 °F /  1.6 °C 34.3 °F /  1.3 °C 30.1in /  1019.6hPa Calm     98% 0in /  0.0mm 0 W/m2
01:15 34.9 °F /  1.6 °C 34.3 °F /  1.3 °C 30.1in /  1019.6hPa Calm   3mph /  4.8km/h 98% 0in /  0.0mm 0 W/m2
01:20 34.9 °F /  1.6 °C 34.3 °F /  1.3 °C 30.1in /  1019.6hPa ESE 2mph /  3.2km/h 3mph /  4.8km/h 98% 0in /  0.0mm 0 W/m2
01:25 34.7 °F /  1.5 °C 34.2 °F /  1.2 °C 30.1in /  1019.6hPa Calm     98% 0in /  0.0mm 0 W/m2
01:30 34.7 °F /  1.5 °C 34.2 °F /  1.2 °C 30.1in /  1019.6hPa Calm     98% 0in /  0.0mm 0 W/m2
01:35 34.9 °F /  1.6 °C 34.3 °F /  1.3 °C 30.1in /  1019.6hPa Calm     98% 0in /  0.0mm 0 W/m2
01:40 34.9 °F /  1.6 °C 34.3 °F /  1.3 °C 30.1in /  1019.6hPa Calm     98% 0in /  0.0mm 0 W/m2
01:45 34.9 °F /  1.6 °C 34.3 °F /  1.3 °C 30.1in /  1019.3hPa Calm     98% 0in /  0.0mm 0 W/m2
01:50 34.9 °F /  1.6 °C 34.3 °F /  1.3 °C 30.1in /  1019.3hPa Calm     98% 0in /  0.0mm 0 W/m2
01:55 34.9 °F /  1.6 °C 34.3 °F /  1.3 °C 30.1in /  1019.3hPa Calm     98% 0in /  0.0mm 0 W/m2
02:00 34.7 °F /  1.5 °C 34.2 °F /  1.2 °C 30.1in /  1019.3hPa Calm     98% 0in /  0.0mm 0 W/m2
02:05 34.7 °F /  1.5 °C 34.2 °F /  1.2 °C 30.1in /  1019.3hPa Calm   2mph /  3.2km/h 98% 0in /  0.0mm 0 W/m2
02:10 34.7 °F /  1.5 °C 34.2 °F /  1.2 °C 30.1in /  1019.3hPa Calm     98% 0in /  0.0mm 0 W/m2
02:15 34.7 °F /  1.5 °C 34.2 °F /  1.2 °C 30.1in /  1019.3hPa Calm   3mph /  4.8km/h 98% 0in /  0.0mm 0 W/m2
02:20 34.7 °F /  1.5 °C 34.2 °F /  1.2 °C 30.1in /  1019.3hPa Calm     98% 0in /  0.0mm 0 W/m2
02:25 34.5 °F /  1.4 °C 34 °F /  1.1 °C 30.1in /  1019.3hPa Calm   2mph /  3.2km/h 98% 0in /  0.0mm 0 W/m2
02:30 34.5 °F /  1.4 °C 34 °F /  1.1 °C 30.1in /  1019.3hPa Calm     98% 0in /  0.0mm 0 W/m2
02:35 34.5 °F /  1.4 °C 34 °F /  1.1 °C 30.1in /  1019.3hPa Calm   2mph /  3.2km/h 98% 0in /  0.0mm 0 W/m2
02:40 34.5 °F /  1.4 °C 34 °F /  1.1 °C 30.1in /  1019.3hPa Calm     98% 0in /  0.0mm 0 W/m2
02:45 34.5 °F /  1.4 °C 34 °F /  1.1 °C 30.1in /  1019.0hPa Calm     98% 0in /  0.0mm 0 W/m2
02:50 34.7 °F /  1.5 °C 34.2 °F /  1.2 °C 30.1in /  1019.0hPa Calm     98% 0in /  0.0mm 0 W/m2
02:55 34.7 °F /  1.5 °C 34.2 °F /  1.2 °C 30.1in /  1019.0hPa Calm   1mph /  1.6km/h 98% 0in /  0.0mm 0 W/m2
03:00 34.5 °F /  1.4 °C 34 °F /  1.1 °C 30.1in /  1019.0hPa ESE 2mph /  3.2km/h 3mph /  4.8km/h 98% 0in /  0.0mm 0 W/m2
03:05 34.5 °F /  1.4 °C 34 °F /  1.1 °C 30.1in /  1019.0hPa Calm     98% 0in /  0.0mm 0 W/m2
03:10 34.5 °F /  1.4 °C 34 °F /  1.1 °C 30.1in /  1019.0hPa Calm     98% 0in /  0.0mm 0 W/m2
03:15 34.5 °F /  1.4 °C 34 °F /  1.1 °C 30.1in /  1019.0hPa Calm   2mph /  3.2km/h 98% 0in /  0.0mm 0 W/m2
03:20 34.5 °F /  1.4 °C 34 °F /  1.1 °C 30.1in /  1019.0hPa Calm   1mph /  1.6km/h 98% 0in /  0.0mm 0 W/m2
03:25 34.5 °F /  1.4 °C 34 °F /  1.1 °C 30.1in /  1019.0hPa Calm     98% 0in /  0.0mm 0 W/m2
03:30 34.5 °F /  1.4 °C 34 °F /  1.1 °C 30.1in /  1019.0hPa Calm     98% 0in /  0.0mm 0 W/m2
03:35 34.3 °F /  1.3 °C 33.8 °F /  1 °C 30.1in /  1019.0hPa Calm     98% 0in /  0.0mm 0 W/m2
03:40 34.3 °F /  1.3 °C 33.8 °F /  1 °C 30.1in /  1019.0hPa Calm     98% 0in /  0.0mm 0 W/m2
03:45 34.3 °F /  1.3 °C 33.8 °F /  1 °C 30.1in /  1018.6hPa Calm     98% 0in /  0.0mm 0 W/m2
03:51 34.3 °F /  1.3 °C 33.8 °F /  1 °C 30.1in /  1018.6hPa Calm     98% 0in /  0.0mm 0 W/m2
03:56 34.3 °F /  1.3 °C 33.8 °F /  1 °C 30.1in /  1018.6hPa Calm     98% 0.01in /  0.2mm 0 W/m2
04:01 34.3 °F /  1.3 °C 33.8 °F /  1 °C 30.1in /  1018.6hPa Calm     98% 0.01in /  0.2mm 0 W/m2
04:06 34.3 °F /  1.3 °C 33.8 °F /  1 °C 30.1in /  1018.6hPa Calm     98% 0.01in /  0.2mm 0 W/m2
04:11 34.3 °F /  1.3 °C 33.8 °F /  1 °C 30.1in /  1018.6hPa Calm     98% 0.01in /  0.2mm 0 W/m2
04:16 34.3 °F /  1.3 °C 33.8 °F /  1 °C 30.1in /  1018.6hPa Calm     98% 0.01in /  0.2mm 0 W/m2
04:21 34.3 °F /  1.3 °C 33.8 °F /  1 °C 30.1in /  1018.6hPa Calm     98% 0.01in /  0.2mm 0 W/m2
04:26 34.3 °F /  1.3 °C 33.8 °F /  1 °C 30.1in /  1018.6hPa Calm     98% 0.01in /  0.2mm 0 W/m2
04:31 34.3 °F /  1.3 °C 33.8 °F /  1 °C 30.1in /  1018.6hPa Calm     98% 0.01in /  0.2mm 0 W/m2
04:36 34.2 °F /  1.2 °C 33.6 °F /  0.9 °C 30.1in /  1018.3hPa Calm     98% 0.01in /  0.2mm 0 W/m2
04:41 34.2 °F /  1.2 °C 33.6 °F /  0.9 °C 30.1in /  1018.3hPa Calm     98% 0.01in /  0.2mm 0 W/m2
04:46 34.3 °F /  1.3 °C 33.8 °F /  1 °C 30.1in /  1018.3hPa Calm     98% 0.01in /  0.2mm 0 W/m2
04:51 34.2 °F /  1.2 °C 33.6 °F /  0.9 °C 30.1in /  1018.6hPa Calm     98% 0.01in /  0.2mm 0 W/m2
04:56 34.3 °F /  1.3 °C 33.8 °F /  1 °C 30.1in /  1018.3hPa Calm     98% 0in /  0.0mm 0 W/m2
05:01 34.3 °F /  1.3 °C 33.8 °F /  1 °C 30.1in /  1018.3hPa Calm     98% 0in /  0.0mm 0 W/m2
05:06 34.3 °F /  1.3 °C 33.8 °F /  1 °C 30.1in /  1018.3hPa Calm   2mph /  3.2km/h 98% 0in /  0.0mm 0 W/m2
05:11 34.3 °F /  1.3 °C 33.8 °F /  1 °C 30.1in /  1018.3hPa East 2.9mph /  4.7km/h 3mph /  4.8km/h 98% 0in /  0.0mm 0 W/m2
05:16 34.2 °F /  1.2 °C 33.6 °F /  0.9 °C 30.1in /  1018.3hPa Calm     98% 0in /  0.0mm 0 W/m2
05:21 34.2 °F /  1.2 °C 33.6 °F /  0.9 °C 30.1in /  1018.6hPa Calm   1mph /  1.6km/h 98% 0in /  0.0mm 0 W/m2
05:26 34 °F /  1.1 °C 33.4 °F /  0.8 °C 30.1in /  1018.3hPa East 0.9mph /  1.4km/h 2mph /  3.2km/h 98% 0in /  0.0mm 0 W/m2
05:31 34 °F /  1.1 °C 33.4 °F /  0.8 °C 30.1in /  1018.3hPa Calm     98% 0in /  0.0mm 0 W/m2
05:36 34 °F /  1.1 °C 33.4 °F /  0.8 °C 30.1in /  1018.3hPa Calm   1mph /  1.6km/h 98% 0in /  0.0mm 0 W/m2
05:41 34 °F /  1.1 °C 33.4 °F /  0.8 °C 30.1in /  1018.3hPa Calm   1mph /  1.6km/h 98% 0in /  0.0mm 0 W/m2
05:46 34 °F /  1.1 °C 33.4 °F /  0.8 °C 30.1in /  1018.3hPa Calm     98% 0in /  0.0mm 0 W/m2
05:51 34 °F /  1.1 °C 33.4 °F /  0.8 °C 30.1in /  1018.3hPa Calm     98% 0in /  0.0mm 0 W/m2
05:56 33.8 °F /  1 °C 33.3 °F /  0.7 °C 30.1in /  1018.3hPa Calm     98% 0in /  0.0mm 0 W/m2
06:01 33.8 °F /  1 °C 33.3 °F /  0.7 °C 30.1in /  1018.3hPa Calm     98% 0in /  0.0mm 0 W/m2
06:06 33.8 °F /  1 °C 33.3 °F /  0.7 °C 30.1in /  1018.3hPa Calm     98% 0in /  0.0mm 0 W/m2
06:11 33.6 °F /  0.9 °C 33.1 °F /  0.6 °C 30.1in /  1018.3hPa Calm     98% 0in /  0.0mm 0 W/m2
06:16 33.6 °F /  0.9 °C 33.1 °F /  0.6 °C 30.1in /  1018.3hPa Calm     98% 0in /  0.0mm 0 W/m2
06:21 33.6 °F /  0.9 °C 33.1 °F /  0.6 °C 30.1in /  1018.3hPa Calm     98% 0in /  0.0mm 0 W/m2
06:26 33.6 °F /  0.9 °C 33.1 °F /  0.6 °C 30.1in /  1018.3hPa Calm     98% 0in /  0.0mm 0 W/m2
06:31 33.6 °F /  0.9 °C 33.1 °F /  0.6 °C 30.1in /  1018.3hPa Calm     98% 0in /  0.0mm 0 W/m2
06:36 33.6 °F /  0.9 °C 33.1 °F /  0.6 °C 30.1in /  1018.3hPa East 0.9mph /  1.4km/h 2mph /  3.2km/h 98% 0in /  0.0mm 0 W/m2
06:41 33.6 °F /  0.9 °C 33.1 °F /  0.6 °C 30.1in /  1018.3hPa Calm   2mph /  3.2km/h 98% 0in /  0.0mm 0 W/m2
06:46 33.4 °F /  0.8 °C 32.9 °F /  0.5 °C 30.1in /  1018.3hPa Calm   1mph /  1.6km/h 98% 0in /  0.0mm 0 W/m2
06:51 33.4 °F /  0.8 °C 32.9 °F /  0.5 °C 30.1in /  1018.3hPa Calm   2mph /  3.2km/h 98% 0in /  0.0mm 0 W/m2
06:56 33.4 °F /  0.8 °C 32.9 °F /  0.5 °C 30.1in /  1018.3hPa Calm   1mph /  1.6km/h 98% 0in /  0.0mm 0 W/m2
07:01 33.4 °F /  0.8 °C 32.9 °F /  0.5 °C 30.1in /  1018.3hPa Calm     98% 0in /  0.0mm 0 W/m2
07:06 33.4 °F /  0.8 °C 32.9 °F /  0.5 °C 30.1in /  1018.3hPa Calm   1mph /  1.6km/h 98% 0in /  0.0mm 0 W/m2
07:11 33.4 °F /  0.8 °C 32.9 °F /  0.5 °C 30.1in /  1018.3hPa Calm     98% 0in /  0.0mm 0 W/m2
07:16 33.4 °F /  0.8 °C 32.9 °F /  0.5 °C 30.1in /  1018.3hPa Calm     98% 0in /  0.0mm 0 W/m2
07:21 33.4 °F /  0.8 °C 32.9 °F /  0.5 °C 30.1in /  1018.3hPa Calm   1mph /  1.6km/h 98% 0in /  0.0mm 0 W/m2
07:26 33.4 °F /  0.8 °C 32.9 °F /  0.5 °C 30.1in /  1018.3hPa Calm     98% 0in /  0.0mm 0 W/m2
07:31 33.4 °F /  0.8 °C 32.9 °F /  0.5 °C 30.1in /  1018.6hPa Calm     98% 0in /  0.0mm 0 W/m2
07:36 33.4 °F /  0.8 °C 32.9 °F /  0.5 °C 30.1in /  1018.6hPa ESE 2mph /  3.2km/h 2mph /  3.2km/h 98% 0in /  0.0mm 0 W/m2
07:41 33.4 °F /  0.8 °C 32.9 °F /  0.5 °C 30.1in /  1018.6hPa Calm     98% 0in /  0.0mm 0 W/m2
07:46 33.4 °F /  0.8 °C 32.9 °F /  0.5 °C 30.1in /  1018.3hPa Calm     98% 0in /  0.0mm 0 W/m2
07:51 33.6 °F /  0.9 °C 33.1 °F /  0.6 °C 30.1in /  1018.3hPa Calm     98% 0in /  0.0mm 0 W/m2
07:56 33.6 °F /  0.9 °C 33.1 °F /  0.6 °C 30.1in /  1018.6hPa Calm     98% 0in /  0.0mm 0 W/m2
08:01 33.6 °F /  0.9 °C 33.1 °F /  0.6 °C 30.1in /  1018.3hPa Calm     98% 0in /  0.0mm 0 W/m2
08:06 33.6 °F /  0.9 °C 33.1 °F /  0.6 °C 30.1in /  1018.3hPa Calm     98% 0in /  0.0mm 0 W/m2
08:12 33.6 °F /  0.9 °C 33.1 °F /  0.6 °C 30.1in /  1018.6hPa Calm     98% 0in /  0.0mm 0 W/m2
08:17 33.6 °F /  0.9 °C 33.1 °F /  0.6 °C 30.1in /  1018.6hPa Calm     98% 0in /  0.0mm 0 W/m2
08:22 33.6 °F /  0.9 °C 33.1 °F /  0.6 °C 30.1in /  1018.6hPa Calm     98% 0in /  0.0mm 0 W/m2
08:27 33.6 °F /  0.9 °C 33.1 °F /  0.6 °C 30.1in /  1018.6hPa Calm     98% 0in /  0.0mm 0 W/m2
08:32 33.6 °F /  0.9 °C 33.1 °F /  0.6 °C 30.1in /  1018.6hPa Calm     98% 0in /  0.0mm 0 W/m2
08:37 33.8 °F /  1 °C 33.3 °F /  0.7 °C 30.1in /  1018.6hPa Calm     98% 0in /  0.0mm 5 W/m2
08:42 33.8 °F /  1 °C 33.3 °F /  0.7 °C 30.1in /  1018.6hPa Calm     98% 0in /  0.0mm 9 W/m2
08:47 33.8 °F /  1 °C 33.3 °F /  0.7 °C 30.1in /  1018.6hPa Calm     98% 0in /  0.0mm 11 W/m2
08:52 33.8 °F /  1 °C 33.3 °F /  0.7 °C 30.1in /  1018.6hPa Calm     98% 0in /  0.0mm 11 W/m2
08:57 34 °F /  1.1 °C 33.4 °F /  0.8 °C 30.1in /  1018.6hPa Calm     98% 0in /  0.0mm 12 W/m2
09:02 34 °F /  1.1 °C 33.4 °F /  0.8 °C 30.1in /  1019.0hPa Calm     98% 0in /  0.0mm 11 W/m2
09:07 34 °F /  1.1 °C 33.4 °F /  0.8 °C 30.1in /  1019.0hPa Calm     98% 0in /  0.0mm 12 W/m2
09:12 33.8 °F /  1 °C 33.3 °F /  0.7 °C 30.1in /  1019.0hPa Calm     98% 0in /  0.0mm 12 W/m2
09:17 34 °F /  1.1 °C 33.4 °F /  0.8 °C 30.1in /  1019.0hPa Calm     98% 0in /  0.0mm 16 W/m2
09:22 34 °F /  1.1 °C 33.4 °F /  0.8 °C 30.1in /  1018.6hPa Calm   1mph /  1.6km/h 98% 0in /  0.0mm 32 W/m2
09:27 34 °F /  1.1 °C 33.4 °F /  0.8 °C 30.1in /  1019.0hPa Calm     98% 0in /  0.0mm 33 W/m2
09:32 34.2 °F /  1.2 °C 33.6 °F /  0.9 °C 30.1in /  1018.6hPa Calm     98% 0in /  0.0mm 37 W/m2
09:37 34.2 °F /  1.2 °C 33.6 °F /  0.9 °C 30.1in /  1018.6hPa Calm     98% 0in /  0.0mm 35 W/m2
09:42 34.2 °F /  1.2 °C 33.6 °F /  0.9 °C 30.1in /  1018.6hPa Calm     98% 0in /  0.0mm 35 W/m2
09:47 34.3 °F /  1.3 °C 33.8 °F /  1 °C 30.1in /  1018.6hPa Calm     98% 0in /  0.0mm 42 W/m2
09:52 34.3 °F /  1.3 °C 33.8 °F /  1 °C 30.1in /  1018.6hPa Calm     98% 0in /  0.0mm 42 W/m2
09:58 34.3 °F /  1.3 °C 33.8 °F /  1 °C 30.1in /  1018.6hPa Calm     98% 0in /  0.0mm 46 W/m2
10:03 34.3 °F /  1.3 °C 33.8 °F /  1 °C 30.1in /  1018.6hPa Calm     98% 0in /  0.0mm 46 W/m2
10:08 34.3 °F /  1.3 °C 33.8 °F /  1 °C 30.1in /  1018.6hPa Calm     98% 0in /  0.0mm 46 W/m2
10:19 34.3 °F /  1.3 °C 33.8 °F /  1 °C 30.1in /  1019.0hPa Calm   2mph /  3.2km/h 98% 0in /  0.0mm 53 W/m2
10:24 34.3 °F /  1.3 °C 33.8 °F /  1 °C 30.1in /  1018.6hPa Calm     98% 0in /  0.0mm 56 W/m2
10:29 34.3 °F /  1.3 °C 33.8 °F /  1 °C 30.1in /  1019.0hPa Calm     98% 0in /  0.0mm 62 W/m2
10:34 34.5 °F /  1.4 °C 34 °F /  1.1 °C 30.1in /  1019.0hPa Calm   1mph /  1.6km/h 98% 0in /  0.0mm 63 W/m2
10:39 34.5 °F /  1.4 °C 34 °F /  1.1 °C 30.1in /  1019.0hPa Calm     98% 0in /  0.0mm 60 W/m2
10:44 34.7 °F /  1.5 °C 34.2 °F /  1.2 °C 30.1in /  1019.0hPa Calm   1mph /  1.6km/h 98% 0in /  0.0mm 65 W/m2
10:49 34.9 °F /  1.6 °C 34.3 °F /  1.3 °C 30.1in /  1019.0hPa Calm     98% 0in /  0.0mm 65 W/m2
10:54 34.9 °F /  1.6 °C 34.3 °F /  1.3 °C 30.1in /  1019.0hPa ESE 0.9mph /  1.4km/h 3mph /  4.8km/h 98% 0in /  0.0mm 65 W/m2
11:00 34.9 °F /  1.6 °C 34.3 °F /  1.3 °C 30.1in /  1019.0hPa Calm   1mph /  1.6km/h 98% 0in /  0.0mm 67 W/m2
11:05 34.9 °F /  1.6 °C 34.3 °F /  1.3 °C 30.1in /  1019.0hPa Calm   3mph /  4.8km/h 98% 0in /  0.0mm 39 W/m2
11:10 35.1 °F /  1.7 °C 34.5 °F /  1.4 °C 30.1in /  1019.0hPa Calm   1mph /  1.6km/h 98% 0in /  0.0mm 100 W/m2
11:15 35.1 °F /  1.7 °C 34.5 °F /  1.4 °C 30.1in /  1019.0hPa SE 0.9mph /  1.4km/h 2mph /  3.2km/h 98% 0in /  0.0mm 79 W/m2
11:20 35.2 °F /  1.8 °C 34.7 °F /  1.5 °C 30.1in /  1019.0hPa ESE 0.9mph /  1.4km/h 1mph /  1.6km/h 98% 0in /  0.0mm 95 W/m2
11:25 35.2 °F /  1.8 °C 34.7 °F /  1.5 °C 30.1in /  1019.3hPa Calm   1mph /  1.6km/h 98% 0in /  0.0mm 72 W/m2
11:30 35.2 °F /  1.8 °C 34.7 °F /  1.5 °C 30.1in /  1019.0hPa Calm     98% 0in /  0.0mm 60 W/m2
11:35 35.2 °F /  1.8 °C 34.7 °F /  1.5 °C 30.1in /  1019.0hPa Calm     98% 0in /  0.0mm 81 W/m2
11:40 35.2 °F /  1.8 °C 34.7 °F /  1.5 °C 30.1in /  1019.0hPa Calm   1mph /  1.6km/h 98% 0in /  0.0mm 70 W/m2
11:45 35.4 °F /  1.9 °C 34.9 °F /  1.6 °C 30.1in /  1019.0hPa Calm     98% 0in /  0.0mm 51 W/m2
11:50 35.4 °F /  1.9 °C 34.9 °F /  1.6 °C 30.1in /  1019.0hPa Calm   1mph /  1.6km/h 98% 0in /  0.0mm 49 W/m2
11:55 35.6 °F /  2 °C 35.1 °F /  1.7 °C 30.1in /  1019.0hPa ESE 0.9mph /  1.4km/h 1mph /  1.6km/h 98% 0in /  0.0mm 56 W/m2
12:00 35.8 °F /  2.1 °C 35.2 °F /  1.8 °C 30.1in /  1019.0hPa Calm   2mph /  3.2km/h 98% 0in /  0.0mm 81 W/m2
12:05 35.8 °F /  2.1 °C 35.2 °F /  1.8 °C 30.1in /  1018.6hPa Calm     98% 0in /  0.0mm 86 W/m2
12:10 36 °F /  2.2 °C 35.4 °F /  1.9 °C 30.1in /  1018.6hPa Calm     98% 0in /  0.0mm 95 W/m2
12:15 36 °F /  2.2 °C 35.4 °F /  1.9 °C 30.1in /  1018.6hPa Calm     98% 0in /  0.0mm 130 W/m2
12:20 36 °F /  2.2 °C 35.4 °F /  1.9 °C 30.1in /  1018.6hPa Calm     98% 0in /  0.0mm 142 W/m2
12:25 36.1 °F /  2.3 °C 35.6 °F /  2 °C 30.1in /  1018.3hPa Calm     98% 0in /  0.0mm 114 W/m2
12:30 36.3 °F /  2.4 °C 35.8 °F /  2.1 °C 30.1in /  1018.3hPa Calm   2mph /  3.2km/h 98% 0in /  0.0mm 116 W/m2
12:35 36.3 °F /  2.4 °C 35.8 °F /  2.1 °C 30.1in /  1018.3hPa ESE 0.9mph /  1.4km/h 1mph /  1.6km/h 98% 0in /  0.0mm 116 W/m2
12:40 36.5 °F /  2.5 °C 36 °F /  2.2 °C 30.1in /  1018.3hPa ESE 2mph /  3.2km/h 3mph /  4.8km/h 98% 0in /  0.0mm 144 W/m2
12:45 36.7 °F /  2.6 °C 36.1 °F /  2.3 °C 30.1in /  1018.3hPa ENE 2mph /  3.2km/h 3mph /  4.8km/h 98% 0in /  0.0mm 151 W/m2
12:50 36.7 °F /  2.6 °C 36.1 °F /  2.3 °C 30.1in /  1018.3hPa East 0.9mph /  1.4km/h 3mph /  4.8km/h 98% 0in /  0.0mm 130 W/m2
12:55 36.9 °F /  2.7 °C 36.3 °F /  2.4 °C 30.1in /  1018.0hPa ESE 2mph /  3.2km/h 3mph /  4.8km/h 98% 0in /  0.0mm 111 W/m2
13:00 36.9 °F /  2.7 °C 36.3 °F /  2.4 °C 30.1in /  1018.0hPa ESE 2mph /  3.2km/h 4mph /  6.4km/h 98% 0in /  0.0mm 93 W/m2
13:05 36.9 °F /  2.7 °C 36.3 °F /  2.4 °C 30.1in /  1018.0hPa Calm   1mph /  1.6km/h 98% 0in /  0.0mm 102 W/m2
13:10 36.9 °F /  2.7 °C 36.3 °F /  2.4 °C 30.1in /  1018.0hPa Calm   1mph /  1.6km/h 98% 0in /  0.0mm 98 W/m2
13:15 36.9 °F /  2.7 °C 36.3 °F /  2.4 °C 30.1in /  1018.0hPa Calm   1mph /  1.6km/h 98% 0in /  0.0mm 65 W/m2
13:20 37 °F /  2.8 °C 36.5 °F /  2.5 °C 30.1in /  1018.0hPa East 2mph /  3.2km/h 2mph /  3.2km/h 98% 0in /  0.0mm 58 W/m2
13:25 37.2 °F /  2.9 °C 36.7 °F /  2.6 °C 30.1in /  1018.0hPa Calm     98% 0in /  0.0mm 53 W/m2
13:30 37.2 °F /  2.9 °C 36.7 °F /  2.6 °C 30.1in /  1018.0hPa SE 2mph /  3.2km/h 2mph /  3.2km/h 98% 0in /  0.0mm 72 W/m2
13:35 37.2 °F /  2.9 °C 36.7 °F /  2.6 °C 30.1in /  1018.0hPa Calm   2mph /  3.2km/h 98% 0in /  0.0mm 97 W/m2
13:40 37.2 °F /  2.9 °C 36.7 °F /  2.6 °C 30.1in /  1017.6hPa Calm     98% 0in /  0.0mm 100 W/m2
13:45 37.4 °F /  3 °C 36.9 °F /  2.7 °C 30.1in /  1018.0hPa Calm     98% 0in /  0.0mm 109 W/m2
13:50 37.6 °F /  3.1 °C 37 °F /  2.8 °C 30.1in /  1017.6hPa Calm     98% 0in /  0.0mm 97 W/m2
13:55 37.6 °F /  3.1 °C 37 °F /  2.8 °C 30.1in /  1017.6hPa Calm   2mph /  3.2km/h 98% 0in /  0.0mm 118 W/m2
14:00 37.8 °F /  3.2 °C 37.2 °F /  2.9 °C 30.1in /  1017.6hPa Calm     98% 0in /  0.0mm 86 W/m2
14:05 37.9 °F /  3.3 °C 37.4 °F /  3 °C 30.1in /  1017.6hPa Calm     98% 0in /  0.0mm 65 W/m2
14:10 37.9 °F /  3.3 °C 37.8 °F /  3.2 °C 30.1in /  1017.6hPa Calm   1mph /  1.6km/h 99% 0in /  0.0mm 69 W/m2
14:15 38.1 °F /  3.4 °C 37.9 °F /  3.3 °C 30.1in /  1017.6hPa Calm     99% 0in /  0.0mm 63 W/m2
14:20 38.1 °F /  3.4 °C 37.6 °F /  3.1 °C 30in /  1017.3hPa Calm     98% 0in /  0.0mm 67 W/m2
14:25 38.3 °F /  3.5 °C 37.8 °F /  3.2 °C 30in /  1017.3hPa Calm     98% 0in /  0.0mm 76 W/m2
14:30 38.5 °F /  3.6 °C 37.9 °F /  3.3 °C 30in /  1017.3hPa Calm   1mph /  1.6km/h 98% 0in /  0.0mm 72 W/m2
14:35 38.7 °F /  3.7 °C 38.1 °F /  3.4 °C 30in /  1017.3hPa Calm     98% 0in /  0.0mm 70 W/m2
14:40 38.7 °F /  3.7 °C 38.5 °F /  3.6 °C 30in /  1017.3hPa Calm   1mph /  1.6km/h 99% 0in /  0.0mm 86 W/m2
14:45 38.8 °F /  3.8 °C 38.3 °F /  3.5 °C 30in /  1017.3hPa Calm   2mph /  3.2km/h 98% 0in /  0.0mm 105 W/m2
14:50 38.8 °F /  3.8 °C 38.3 °F /  3.5 °C 30in /  1017.3hPa Calm   2mph /  3.2km/h 98% 0in /  0.0mm 114 W/m2
14:56 39 °F /  3.9 °C 38.5 °F /  3.6 °C 30in /  1017.3hPa Calm     98% 0in /  0.0mm 90 W/m2
15:01 39.2 °F /  4 °C 38.7 °F /  3.7 °C 30in /  1016.9hPa Calm     98% 0in /  0.0mm 90 W/m2
15:06 39.4 °F /  4.1 °C 39.2 °F /  4 °C 30in /  1016.9hPa Calm     99% 0in /  0.0mm 93 W/m2
15:11 39.4 °F /  4.1 °C 39.2 °F /  4 °C 30in /  1016.9hPa Calm     99% 0in /  0.0mm 113 W/m2
15:16 39.6 °F /  4.2 °C 39 °F /  3.9 °C 30in /  1016.9hPa Calm     98% 0in /  0.0mm 98 W/m2
15:21 39.7 °F /  4.3 °C 39.6 °F /  4.2 °C 30in /  1016.9hPa Calm     99% 0in /  0.0mm 88 W/m2
15:26 40.1 °F /  4.5 °C 39.6 °F /  4.2 °C 30in /  1016.9hPa Calm     98% 0in /  0.0mm 84 W/m2
15:31 40.1 °F /  4.5 °C 39.6 °F /  4.2 °C 30in /  1016.9hPa Calm     98% 0in /  0.0mm 62 W/m2
15:36 40.3 °F /  4.6 °C 39.7 °F /  4.3 °C 30in /  1016.9hPa Calm     98% 0in /  0.0mm 63 W/m2
15:41 40.3 °F /  4.6 °C 40.1 °F /  4.5 °C 30in /  1016.9hPa Calm     99% 0in /  0.0mm 58 W/m2
15:46 40.5 °F /  4.7 °C 40.3 °F /  4.6 °C 30in /  1016.9hPa Calm     99% 0in /  0.0mm 44 W/m2
15:51 40.5 °F /  4.7 °C 40.3 °F /  4.6 °C 30in /  1016.9hPa Calm     99% 0in /  0.0mm 42 W/m2
15:56 40.3 °F /  4.6 °C 40.1 °F /  4.5 °C 30in /  1016.6hPa Calm     99% 0in /  0.0mm 40 W/m2
16:01 40.3 °F /  4.6 °C 39.7 °F /  4.3 °C 30in /  1016.9hPa Calm     98% 0in /  0.0mm 39 W/m2
16:06 39.9 °F /  4.4 °C 39.4 °F /  4.1 °C 30in /  1016.9hPa Calm     98% 0in /  0.0mm 30 W/m2
16:11 39.9 °F /  4.4 °C 39.4 °F /  4.1 °C 30in /  1016.9hPa Calm     98% 0in /  0.0mm 35 W/m2
16:16 39.7 °F /  4.3 °C 39.2 °F /  4 °C 30in /  1016.9hPa Calm     98% 0in /  0.0mm 33 W/m2
16:21 39.6 °F /  4.2 °C 39 °F /  3.9 °C 30in /  1016.9hPa Calm     98% 0in /  0.0mm 35 W/m2
16:27 39.6 °F /  4.2 °C 39 °F /  3.9 °C 30in /  1016.9hPa Calm     98% 0in /  0.0mm 37 W/m2
16:32 39.6 °F /  4.2 °C 39 °F /  3.9 °C 30in /  1016.9hPa Calm     98% 0in /  0.0mm 42 W/m2
16:37 39.6 °F /  4.2 °C 39 °F /  3.9 °C 30in /  1016.6hPa Calm     98% 0in /  0.0mm 37 W/m2
16:42 39.7 °F /  4.3 °C 39.2 °F /  4 °C 30in /  1016.6hPa Calm     98% 0in /  0.0mm 30 W/m2
16:47 39.7 °F /  4.3 °C 39.2 °F /  4 °C 30in /  1016.9hPa Calm     98% 0in /  0.0mm 26 W/m2
16:52 39.7 °F /  4.3 °C 39.2 °F /  4 °C 30in /  1016.6hPa Calm     98% 0in /  0.0mm 23 W/m2
16:57 39.9 °F /  4.4 °C 39.4 °F /  4.1 °C 30in /  1016.6hPa Calm     98% 0in /  0.0mm 21 W/m2
17:02 39.9 °F /  4.4 °C 39.4 °F /  4.1 °C 30in /  1016.6hPa Calm     98% 0in /  0.0mm 14 W/m2
17:07 39.9 °F /  4.4 °C 39.4 °F /  4.1 °C 30in /  1016.6hPa Calm     98% 0in /  0.0mm 9 W/m2
17:12 39.9 °F /  4.4 °C 39.4 °F /  4.1 °C 30in /  1016.9hPa Calm     98% 0in /  0.0mm 5 W/m2
17:17 39.7 °F /  4.3 °C 39.2 °F /  4 °C 30in /  1016.6hPa Calm     98% 0in /  0.0mm 0 W/m2
17:22 39.7 °F /  4.3 °C 39.2 °F /  4 °C 30in /  1016.9hPa Calm     98% 0in /  0.0mm 0 W/m2
17:27 39.6 °F /  4.2 °C 39 °F /  3.9 °C 30in /  1016.6hPa Calm     98% 0in /  0.0mm 0 W/m2
17:32 39.4 °F /  4.1 °C 38.8 °F /  3.8 °C 30in /  1016.9hPa Calm     98% 0in /  0.0mm 0 W/m2
17:37 39.4 °F /  4.1 °C 38.8 °F /  3.8 °C 30in /  1016.9hPa Calm     98% 0in /  0.0mm 0 W/m2
17:42 39.4 °F /  4.1 °C 38.8 °F /  3.8 °C 30in /  1016.9hPa Calm     98% 0in /  0.0mm 0 W/m2
17:47 39.4 °F /  4.1 °C 38.8 °F /  3.8 °C 30in /  1016.9hPa Calm     98% 0in /  0.0mm 0 W/m2
17:52 39.4 °F /  4.1 °C 38.8 °F /  3.8 °C 30in /  1016.9hPa Calm     98% 0in /  0.0mm 0 W/m2
17:57 39.4 °F /  4.1 °C 38.8 °F /  3.8 °C 30in /  1016.9hPa Calm     98% 0in /  0.0mm 0 W/m2
18:02 39.4 °F /  4.1 °C 38.8 °F /  3.8 °C 30in /  1016.9hPa Calm     98% 0in /  0.0mm 0 W/m2
18:07 39.4 °F /  4.1 °C 38.8 °F /  3.8 °C 30in /  1016.9hPa Calm     98% 0in /  0.0mm 0 W/m2
18:12 39.2 °F /  4 °C 38.7 °F /  3.7 °C 30in /  1016.9hPa Calm     98% 0in /  0.0mm 0 W/m2
18:17 39 °F /  3.9 °C 38.5 °F /  3.6 °C 30in /  1016.9hPa Calm     98% 0in /  0.0mm 0 W/m2
18:22 39 °F /  3.9 °C 38.5 °F /  3.6 °C 30in /  1016.9hPa Calm     98% 0in /  0.0mm 0 W/m2
18:27 38.8 °F /  3.8 °C 38.3 °F /  3.5 °C 30in /  1016.9hPa Calm     98% 0in /  0.0mm 0 W/m2
18:32 38.7 °F /  3.7 °C 38.1 °F /  3.4 °C 30in /  1016.9hPa Calm     98% 0in /  0.0mm 0 W/m2
18:37 38.7 °F /  3.7 °C 38.1 °F /  3.4 °C 30in /  1016.9hPa Calm     98% 0in /  0.0mm 0 W/m2
18:42 38.5 °F /  3.6 °C 37.9 °F /  3.3 °C 30in /  1016.9hPa Calm     98% 0in /  0.0mm 0 W/m2
18:47 38.5 °F /  3.6 °C 37.9 °F /  3.3 °C 30in /  1016.6hPa Calm     98% 0in /  0.0mm 0 W/m2
18:52 38.3 °F /  3.5 °C 37.8 °F /  3.2 °C 30in /  1016.6hPa Calm     98% 0in /  0.0mm 0 W/m2
18:57 38.1 °F /  3.4 °C 37.6 °F /  3.1 °C 30in /  1016.6hPa Calm     98% 0in /  0.0mm 0 W/m2
19:02 38.1 °F /  3.4 °C 37.6 °F /  3.1 °C 30in /  1016.6hPa Calm     98% 0in /  0.0mm 0 W/m2
19:07 38.1 °F /  3.4 °C 37.6 °F /  3.1 °C 30in /  1016.6hPa Calm     98% 0in /  0.0mm 0 W/m2
19:13 38.3 °F /  3.5 °C 37.8 °F /  3.2 °C 30in /  1016.6hPa Calm     98% 0in /  0.0mm 0 W/m2
19:18 38.3 °F /  3.5 °C 37.8 °F /  3.2 °C 30in /  1016.6hPa Calm     98% 0in /  0.0mm 0 W/m2
19:23 38.1 °F /  3.4 °C 37.6 °F /  3.1 °C 30in /  1016.6hPa Calm     98% 0in /  0.0mm 0 W/m2
19:28 38.1 °F /  3.4 °C 37.6 °F /  3.1 °C 30in /  1016.9hPa Calm     98% 0in /  0.0mm 0 W/m2
19:33 38.1 °F /  3.4 °C 37.6 °F /  3.1 °C 30in /  1016.6hPa Calm     98% 0in /  0.0mm 0 W/m2
19:38 37.9 °F /  3.3 °C 37.4 °F /  3 °C 30in /  1016.6hPa Calm     98% 0in /  0.0mm 0 W/m2
19:43 37.9 °F /  3.3 °C 37.4 °F /  3 °C 30in /  1016.9hPa Calm     98% 0in /  0.0mm 0 W/m2
19:48 37.8 °F /  3.2 °C 37.2 °F /  2.9 °C 30in /  1016.9hPa Calm     98% 0in /  0.0mm 0 W/m2
19:53 37.8 °F /  3.2 °C 37.2 °F /  2.9 °C 30in /  1016.9hPa Calm     98% 0in /  0.0mm 0 W/m2
19:58 37.6 °F /  3.1 °C 37 °F /  2.8 °C 30in /  1016.9hPa Calm     98% 0in /  0.0mm 0 W/m2
20:03 37.6 °F /  3.1 °C 37 °F /  2.8 °C 30in /  1016.9hPa Calm     98% 0in /  0.0mm 0 W/m2
20:08 37.6 °F /  3.1 °C 37 °F /  2.8 °C 30in /  1016.9hPa Calm     98% 0in /  0.0mm 0 W/m2
20:13 37.6 °F /  3.1 °C 37 °F /  2.8 °C 30in /  1016.9hPa Calm     98% 0in /  0.0mm 0 W/m2
20:18 37.8 °F /  3.2 °C 37.2 °F /  2.9 °C 30in /  1016.9hPa Calm     98% 0in /  0.0mm 0 W/m2
20:23 37.8 °F /  3.2 °C 37.2 °F /  2.9 °C 30in /  1016.9hPa Calm     98% 0in /  0.0mm 0 W/m2
20:28 37.8 °F /  3.2 °C 37.2 °F /  2.9 °C 30in /  1016.9hPa Calm     98% 0in /  0.0mm 0 W/m2
20:33 37.8 °F /  3.2 °C 37.2 °F /  2.9 °C 30in /  1016.9hPa Calm     98% 0in /  0.0mm 0 W/m2
20:38 37.8 °F /  3.2 °C 37.2 °F /  2.9 °C 30in /  1016.9hPa Calm     98% 0in /  0.0mm 0 W/m2
20:43 37.8 °F /  3.2 °C 37.2 °F /  2.9 °C 30in /  1016.6hPa Calm     98% 0in /  0.0mm 0 W/m2
20:48 37.8 °F /  3.2 °C 37.2 °F /  2.9 °C 30in /  1016.6hPa Calm     98% 0in /  0.0mm 0 W/m2
20:53 37.9 °F /  3.3 °C 37.4 °F /  3 °C 30in /  1016.6hPa Calm     98% 0in /  0.0mm 0 W/m2
20:58 37.8 °F /  3.2 °C 37.2 °F /  2.9 °C 30in /  1016.6hPa Calm     98% 0in /  0.0mm 0 W/m2
21:03 37.6 °F /  3.1 °C 37 °F /  2.8 °C 30in /  1016.6hPa Calm     98% 0in /  0.0mm 0 W/m2
21:08 37.6 °F /  3.1 °C 37 °F /  2.8 °C 30in /  1016.6hPa Calm     98% 0in /  0.0mm 0 W/m2
21:13 37.2 °F /  2.9 °C 36.7 °F /  2.6 °C 30in /  1016.6hPa Calm     98% 0in /  0.0mm 0 W/m2
21:18 37 °F /  2.8 °C 36.5 °F /  2.5 °C 30in /  1016.6hPa Calm     98% 0in /  0.0mm 0 W/m2
21:23 37 °F /  2.8 °C 36.5 °F /  2.5 °C 30in /  1016.6hPa Calm     98% 0in /  0.0mm 0 W/m2
21:28 37.4 °F /  3 °C 36.9 °F /  2.7 °C 30in /  1016.6hPa Calm     98% 0in /  0.0mm 0 W/m2
21:33 37.6 °F /  3.1 °C 37 °F /  2.8 °C 30in /  1016.6hPa Calm   1mph /  1.6km/h 98% 0in /  0.0mm 0 W/m2
21:38 37.6 °F /  3.1 °C 37 °F /  2.8 °C 30in /  1016.6hPa Calm     98% 0in /  0.0mm 0 W/m2
21:43 37.8 °F /  3.2 °C 37.2 °F /  2.9 °C 30in /  1016.6hPa Calm     98% 0in /  0.0mm 0 W/m2
21:48 37.8 °F /  3.2 °C 37.2 °F /  2.9 °C 30in /  1016.6hPa Calm     98% 0in /  0.0mm 0 W/m2
21:53 37.8 °F /  3.2 °C 37.2 °F /  2.9 °C 30in /  1016.6hPa Calm     98% 0in /  0.0mm 0 W/m2
21:58 37.8 °F /  3.2 °C 37.2 °F /  2.9 °C 30in /  1016.6hPa Calm     98% 0in /  0.0mm 0 W/m2
22:03 37.8 °F /  3.2 °C 37.2 °F /  2.9 °C 30in /  1016.6hPa Calm     98% 0in /  0.0mm 0 W/m2
22:08 37.8 °F /  3.2 °C 37.2 °F /  2.9 °C 30in /  1016.6hPa Calm     98% 0in /  0.0mm 0 W/m2
22:13 37.8 °F /  3.2 °C 37.2 °F /  2.9 °C 30in /  1016.6hPa Calm     98% 0in /  0.0mm 0 W/m2
22:18 37.9 °F /  3.3 °C 37.4 °F /  3 °C 30in /  1016.6hPa Calm     98% 0in /  0.0mm 0 W/m2
22:23 37.9 °F /  3.3 °C 37.4 °F /  3 °C 30in /  1016.3hPa Calm     98% 0in /  0.0mm 0 W/m2
22:28 38.1 °F /  3.4 °C 37.6 °F /  3.1 °C 30in /  1016.3hPa Calm     98% 0in /  0.0mm 0 W/m2
22:33 38.1 °F /  3.4 °C 37.6 °F /  3.1 °C 30in /  1016.3hPa Calm     98% 0in /  0.0mm 0 W/m2
22:38 38.5 °F /  3.6 °C 37.9 °F /  3.3 °C 30in /  1016.3hPa Calm     98% 0in /  0.0mm 0 W/m2
22:43 38.8 °F /  3.8 °C 38.3 °F /  3.5 °C 30in /  1016.3hPa Calm     98% 0in /  0.0mm 0 W/m2
22:48 39 °F /  3.9 °C 38.5 °F /  3.6 °C 30in /  1016.3hPa Calm   1mph /  1.6km/h 98% 0in /  0.0mm 0 W/m2
22:53 39.7 °F /  4.3 °C 39.6 °F /  4.2 °C 30in /  1016.3hPa Calm     99% 0in /  0.0mm 0 W/m2
22:59 39.9 °F /  4.4 °C 39.7 °F /  4.3 °C 30in /  1016.3hPa Calm     99% 0in /  0.0mm 0 W/m2
23:04 40.3 °F /  4.6 °C 39.7 °F /  4.3 °C 30in /  1016.3hPa Calm     98% 0in /  0.0mm 0 W/m2
23:09 40.6 °F /  4.8 °C 40.5 °F /  4.7 °C 30in /  1015.9hPa Calm     99% 0in /  0.0mm 0 W/m2
23:14 40.5 °F /  4.7 °C 40.3 °F /  4.6 °C 30in /  1016.3hPa Calm   1mph /  1.6km/h 99% 0in /  0.0mm 0 W/m2
23:19 40.3 °F /  4.6 °C 40.1 °F /  4.5 °C 30in /  1016.3hPa Calm     99% 0in /  0.0mm 0 W/m2
23:24 40.3 °F /  4.6 °C 40.1 °F /  4.5 °C 30in /  1016.3hPa Calm   1mph /  1.6km/h 99% 0in /  0.0mm 0 W/m2
23:29 40.3 °F /  4.6 °C 40.1 °F /  4.5 °C 30in /  1016.3hPa Calm     99% 0in /  0.0mm 0 W/m2
23:34 40.3 °F /  4.6 °C 40.1 °F /  4.5 °C 30in /  1016.3hPa Calm     99% 0in /  0.0mm 0 W/m2
23:39 40.5 °F /  4.7 °C 40.3 °F /  4.6 °C 30in /  1016.3hPa Calm     99% 0in /  0.0mm 0 W/m2
23:44 40.5 °F /  4.7 °C 40.3 °F /  4.6 °C 30in /  1016.3hPa Calm     99% 0in /  0.0mm 0 W/m2
23:49 40.6 °F /  4.8 °C 40.1 °F /  4.5 °C 30in /  1016.3hPa Calm     98% 0in /  0.0mm 0 W/m2
23:54 40.6 °F /  4.8 °C 40.1 °F /  4.5 °C 30in /  1016.3hPa Calm     98% 0in /  0.0mm 0 W/m2
23:59 40.6 °F /  4.8 °C 40.1 °F /  4.5 °C 30in /  1016.3hPa Calm     98% 0in /  0.0mm 0 W/m2
Juneau County Weather
Compliments of Weather Underground - 4 mb